Wabash, Arkansas
Current Conditions -  °F | °C
As of 7:35 AM on Sunday 21 Dec 2014 (Local Time) from KCKM Reporting Station
Clear Clear  
Wind Chill: 26°   Ceiling: Unl
Heat Index: 32°   Visibility: 5mi
Dew Point: 32°   Wind: 7mph
Humidity: 100%   Direction: 360°N
Pressure: 30.22"   Gusts: NA
Location:  34.39°N, 90.83°W
Report Text: KCKM 211335Z AUTO 36006KT 5SM CLR 00/00 A3022 RMK AO1
Loading
Personal Weather Stations






























Interactive Weather Map New forecast layout! Learn more

10-Day Weather Forecast

Advertisements
Track Severe Weather on mobile